Terminal Aerodrome Forecast
Issued by NWS

Home | Current Version | Previous Version | Text Only | Print | Product List | Glossary Off
Versions: 1 2 3 4 5 6 7 8 9 10 11 12 13

000
FTUS43 KTOP 252320
TAFFOE
TAF
KFOE 252320Z 2600/2624 05005KT P6SM FEW030 SCT200
     FM261100 07002KT 4SM BR SKC
     FM261330 10007KT P6SM SKC=

USA.gov is the U.S. government's official web portal to all federal, state and local government web resources and services.